You are listening to:
T67 CTAF/Clearance - Fort Worth, Texas, United States

KAFW 181053Z 31007KT 10SM CLR 06/03 A3015 RMK AO2 SLP211 T00610028 $

If stream doesn't start automatically press the play button
If stream stops then reload player then press play